Oscar Walters — WDC3799 — position and weather

sailwx.info

Track history (hours):
 
Tides and Currents Weather Stations Pressure Air Temp Water Temp Dewpoint Dewpoint Depression Visibility Wind Speed Wind Dir Waves Ship Positions

Oscar Walters

Owner: Pine Bluff Sand & Gravel Company, Pine Bluff, AR. More information available from US FCC via Universal Licensing System and Coast Guard Vessel Documentation Center.

Last reported at 2017-Jan-26 14:33 UTC. Time now 2017-Jun-29 09:13 UTC.
Position N 32°08' W 091°05'.
Warning: this ship's position is months out of date.

Length 20 m; draft 2 m.

Type: Towing. MMSI: 367014390.

Date/timePositionNaut miles runAvg speedWind from/ knotsBaromVisibWave heightAir tempDewpointWater temp
2017-Jan-26 14:33N 32°08' W 091°05'10 9.9
2017-Jan-26 13:34N 32°16' W 090°58'8 8.3
2017-Jan-26 12:34N 32°23' W 090°53'0 0.3
2017-Jan-26 11:33N 32°23' W 090°53'0 0.0
2017-Jan-26 10:33N 32°23' W 090°53'0 0.0
2017-Jan-26 09:34N 32°23' W 090°53'0 0.0
2017-Jan-26 08:34N 32°23' W 090°53'0 0.0
2017-Jan-26 07:33N 32°23' W 090°53'0 0.0
2017-Jan-26 06:34N 32°23' W 090°53'0 0.0
2017-Jan-26 05:34N 32°23' W 090°53'0 0.0
2017-Jan-26 04:33N 32°23' W 090°53'0 0.0
2017-Jan-26 03:34N 32°23' W 090°53'0 0.0
2017-Jan-26 02:34N 32°23' W 090°53'0 0.0
2017-Jan-26 01:34N 32°23' W 090°53'0 0.0
2017-Jan-26 00:34N 32°23' W 090°53'0 0.0
2017-Jan-25 23:34N 32°23' W 090°53'0 0.0
2017-Jan-25 22:34N 32°23' W 090°53'0 0.0
2017-Jan-25 21:34N 32°23' W 090°53'0 0.0
2017-Jan-25 20:34N 32°23' W 090°53'0 0.0
2017-Jan-25 19:34N 32°23' W 090°53'0 0.0
2017-Jan-25 18:33N 32°23' W 090°53'0 0.0
2017-Jan-25 17:34N 32°23' W 090°53'0 0.0
2017-Jan-25 16:34N 32°23' W 090°53'0 0.0
2017-Jan-25 15:34N 32°23' W 090°53'0 0.0
2017-Jan-25 14:34N 32°23' W 090°53'0 0.0
2017-Jan-25 13:33N 32°23' W 090°53'0 0.0
2017-Jan-25 12:34N 32°23' W 090°53'0 0.0
2017-Jan-25 11:34N 32°23' W 090°53'0 0.0
2017-Jan-25 10:33N 32°23' W 090°53'0 0.0
2017-Jan-25 09:34N 32°23' W 090°53'0 0.0
2017-Jan-25 08:33N 32°23' W 090°53'0 0.0
2017-Jan-25 07:34N 32°23' W 090°53'0 0.0
2017-Jan-25 06:34N 32°23' W 090°53'0 0.0
2017-Jan-25 05:34N 32°23' W 090°53'0 0.0
2017-Jan-25 04:34N 32°23' W 090°53'0 0.0
2017-Jan-25 03:33N 32°23' W 090°53'0 0.0
2017-Jan-25 02:34N 32°23' W 090°53'0 0.0
2017-Jan-25 01:34N 32°23' W 090°53'0 0.0
2017-Jan-25 00:34N 32°23' W 090°53'1 0.9
2017-Jan-24 23:34N 32°22' W 090°53'2 2.0
2017-Jan-24 22:34N 32°21' W 090°54'3 2.5
2017-Jan-24 21:33N 32°23' W 090°53'2 2.4
2017-Jan-24 20:33N 32°21' W 090°53'6 6.3
2017-Jan-24 19:34N 32°24' W 090°59'11 9.6
2017-Jan-24 18:27N 32°33' W 091°06'  
2017-Jan-21 12:28N 32°46' W 091°09'0 0.0
2017-Jan-19 23:25N 32°46' W 091°09'  
Track history (hours):
 
Tides and Currents Weather Stations Pressure Air Temp Water Temp Dewpoint Dewpoint Depression Visibility Wind Speed Wind Dir Waves Ship Positions

Oscar Walters

Owner: Pine Bluff Sand & Gravel Company, Pine Bluff, AR. More information available from US FCC via Universal Licensing System and Coast Guard Vessel Documentation Center.

Last reported at 2017-Jan-26 14:33 UTC. Time now 2017-Jun-29 09:13 UTC.
Position N 32°08' W 091°05'.
Warning: this ship's position is months out of date.

Length 20 m; draft 2 m.

Type: Towing. MMSI: 367014390.

Date/timePositionNaut miles runAvg speedWind from/ knotsBaromVisibWave heightAir tempDewpointWater temp
2017-Jan-26 14:33N 32°08' W 091°05'10 9.9
2017-Jan-26 13:34N 32°16' W 090°58'8 8.3
2017-Jan-26 12:34N 32°23' W 090°53'0 0.3
2017-Jan-26 11:33N 32°23' W 090°53'0 0.0
2017-Jan-26 10:33N 32°23' W 090°53'0 0.0
2017-Jan-26 09:34N 32°23' W 090°53'0 0.0
2017-Jan-26 08:34N 32°23' W 090°53'0 0.0
2017-Jan-26 07:33N 32°23' W 090°53'0 0.0
2017-Jan-26 06:34N 32°23' W 090°53'0 0.0
2017-Jan-26 05:34N 32°23' W 090°53'0 0.0
2017-Jan-26 04:33N 32°23' W 090°53'0 0.0
2017-Jan-26 03:34N 32°23' W 090°53'0 0.0
2017-Jan-26 02:34N 32°23' W 090°53'0 0.0
2017-Jan-26 01:34N 32°23' W 090°53'0 0.0
2017-Jan-26 00:34N 32°23' W 090°53'0 0.0
2017-Jan-25 23:34N 32°23' W 090°53'0 0.0
2017-Jan-25 22:34N 32°23' W 090°53'0 0.0
2017-Jan-25 21:34N 32°23' W 090°53'0 0.0
2017-Jan-25 20:34N 32°23' W 090°53'0 0.0
2017-Jan-25 19:34N 32°23' W 090°53'0 0.0
2017-Jan-25 18:33N 32°23' W 090°53'0 0.0
2017-Jan-25 17:34N 32°23' W 090°53'0 0.0
2017-Jan-25 16:34N 32°23' W 090°53'0 0.0
2017-Jan-25 15:34N 32°23' W 090°53'0 0.0
2017-Jan-25 14:34N 32°23' W 090°53'0 0.0
2017-Jan-25 13:33N 32°23' W 090°53'0 0.0
2017-Jan-25 12:34N 32°23' W 090°53'0 0.0
2017-Jan-25 11:34N 32°23' W 090°53'0 0.0
2017-Jan-25 10:33N 32°23' W 090°53'0 0.0
2017-Jan-25 09:34N 32°23' W 090°53'0 0.0
2017-Jan-25 08:33N 32°23' W 090°53'0 0.0
2017-Jan-25 07:34N 32°23' W 090°53'0 0.0
2017-Jan-25 06:34N 32°23' W 090°53'0 0.0
2017-Jan-25 05:34N 32°23' W 090°53'0 0.0
2017-Jan-25 04:34N 32°23' W 090°53'0 0.0
2017-Jan-25 03:33N 32°23' W 090°53'0 0.0
2017-Jan-25 02:34N 32°23' W 090°53'0 0.0
2017-Jan-25 01:34N 32°23' W 090°53'0 0.0
2017-Jan-25 00:34N 32°23' W 090°53'1 0.9
2017-Jan-24 23:34N 32°22' W 090°53'2 2.0
2017-Jan-24 22:34N 32°21' W 090°54'3 2.5
2017-Jan-24 21:33N 32°23' W 090°53'2 2.4
2017-Jan-24 20:33N 32°21' W 090°53'6 6.3
2017-Jan-24 19:34N 32°24' W 090°59'11 9.6
2017-Jan-24 18:27N 32°33' W 091°06'  
2017-Jan-21 12:28N 32°46' W 091°09'0 0.0
2017-Jan-19 23:25N 32°46' W 091°09'  

Dump ship's entire track history